Terminal Aerodrome Forecast
Issued by NWS Tampa Bay Area, FL

Home | Current Version | Previous Version | Text Only | Print | Product List | Glossary On
Versions: 1 2 3 4 5 6 7 8 9 10 11 12 13 14 15
842
FTUS42 KTBW 281843 AAA
TAFSRQ
TAF AMD
KSRQ 281843Z 2819/2918 36006KT P6SM VCTS BKN045CB
     FM282000 31008KT P6SM VCTS SCT025CB BKN050
     FM290000 06006KT P6SM VCTS SCT025CB BKN100
     FM290300 08004KT P6SM SCT130 BKN250
     FM291400 13007KT P6SM SCT030 BKN250
     FM291700 24008KT P6SM SCT040 BKN250=

USA.gov is the U.S. government's official web portal to all federal, state and local government web resources and services.